createdAt,value
2022-12-09T00:02:02.400Z,13.13
2022-12-09T00:04:32.439Z,12.60
2022-12-09T00:07:00.872Z,13.82
2022-12-09T00:09:29.433Z,12.63
2022-12-09T00:11:57.736Z,14.80
2022-12-09T00:14:26.154Z,12.70
2022-12-09T00:16:54.754Z,11.88
2022-12-09T00:19:23.066Z,11.63
2022-12-09T00:21:52.640Z,13.30
2022-12-09T00:24:20.868Z,12.55
2022-12-09T00:26:49.132Z,13.98
2022-12-09T00:29:17.493Z,12.70
2022-12-09T00:31:45.919Z,12.10
2022-12-09T00:34:16.128Z,12.35
2022-12-09T00:36:44.586Z,13.70
2022-12-09T00:39:14.819Z,12.88
2022-12-09T00:41:43.519Z,12.73
2022-12-09T00:44:12.779Z,12.57
2022-12-09T00:46:41.207Z,11.77
2022-12-09T00:49:09.427Z,11.90
2022-12-09T00:51:38.163Z,12.98
2022-12-09T00:54:06.408Z,13.32
2022-12-09T00:56:36.027Z,12.43
2022-12-09T00:59:04.501Z,12.48
2022-12-09T01:01:33.077Z,14.15
2022-12-09T01:04:02.776Z,13.98
2022-12-09T01:06:31.525Z,12.52
2022-12-09T01:09:00.752Z,14.15
2022-12-09T01:11:30.192Z,14.10
2022-12-09T01:14:02.236Z,13.30
2022-12-09T01:16:32.818Z,14.13
2022-12-09T01:19:03.297Z,13.90
2022-12-09T01:21:34.264Z,12.27
2022-12-09T01:24:03.380Z,13.30
2022-12-09T01:26:31.783Z,13.63
2022-12-09T01:29:01.477Z,12.52
2022-12-09T01:31:30.080Z,12.00
2022-12-09T01:33:58.677Z,13.23
2022-12-09T01:36:29.075Z,12.45
2022-12-09T01:38:59.091Z,12.70
2022-12-09T01:41:28.724Z,13.32
2022-12-09T01:44:18.899Z,12.02
2022-12-09T01:46:47.936Z,11.60
2022-12-09T01:49:20.883Z,12.07
2022-12-09T01:51:55.799Z,12.57
2022-12-09T01:54:24.552Z,11.93
2022-12-09T01:56:54.860Z,12.15
2022-12-09T01:59:26.148Z,11.35
2022-12-09T02:01:59.954Z,11.77
2022-12-09T02:04:31.373Z,12.73
2022-12-09T02:07:03.882Z,11.98
2022-12-09T02:09:32.777Z,10.95
2022-12-09T02:12:13.104Z,11.88
2022-12-09T02:14:46.263Z,10.60
2022-12-09T02:17:36.798Z,10.85
2022-12-09T02:20:16.743Z,11.77
2022-12-09T02:22:48.253Z,12.27
2022-12-09T02:25:27.757Z,12.27
2022-12-09T02:28:25.313Z,12.10
2022-12-09T02:31:04.696Z,14.57
2022-12-09T02:33:45.673Z,12.38
2022-12-09T02:36:19.708Z,12.68
2022-12-09T02:38:52.268Z,13.20
2022-12-09T02:41:24.943Z,13.00
2022-12-09T02:43:57.704Z,14.48
2022-12-09T02:46:31.988Z,15.93
2022-12-09T02:49:01.205Z,13.88
2022-12-09T02:51:35.328Z,15.90
2022-12-09T02:54:10.136Z,15.45
2022-12-09T02:56:42.324Z,17.15
2022-12-09T02:59:10.879Z,16.67
2022-12-09T03:01:48.997Z,16.67
2022-12-09T03:04:22.775Z,16.52
2022-12-09T03:06:56.046Z,16.05
2022-12-09T03:09:28.651Z,15.57
2022-12-09T03:12:00.731Z,14.93
2022-12-09T03:14:33.044Z,16.05
2022-12-09T03:17:11.502Z,15.80
2022-12-09T03:19:45.918Z,15.55
2022-12-09T03:22:18.140Z,16.75
2022-12-09T03:24:52.137Z,16.00
2022-12-09T03:27:26.563Z,16.48
2022-12-09T03:29:57.436Z,16.50
2022-12-09T03:32:27.808Z,19.85
2022-12-09T03:35:03.400Z,17.08
2022-12-09T03:37:34.447Z,17.65
2022-12-09T03:40:09.859Z,21.42
2022-12-09T03:42:49.258Z,23.08
2022-12-09T03:45:20.891Z,22.77
2022-12-09T03:47:49.515Z,22.58
2022-12-09T03:50:18.695Z,22.38
2022-12-09T03:52:53.986Z,22.45
2022-12-09T03:55:30.034Z,23.23
2022-12-09T03:58:01.488Z,20.65
2022-12-09T04:00:30.547Z,26.63
2022-12-09T04:02:58.933Z,29.60
2022-12-09T04:05:27.271Z,24.33
2022-12-09T04:07:57.085Z,22.35
2022-12-09T04:10:25.546Z,22.02
2022-12-09T04:12:53.723Z,21.52
2022-12-09T04:15:22.124Z,19.08
2022-12-09T04:17:50.659Z,19.67
2022-12-09T04:20:19.454Z,18.80
2022-12-09T04:22:48.012Z,18.88
2022-12-09T04:25:17.694Z,21.15
2022-12-09T04:27:46.245Z,23.25
2022-12-09T04:30:14.850Z,24.90
2022-12-09T04:32:44.086Z,22.02
2022-12-09T04:35:12.571Z,19.95
2022-12-09T04:37:40.785Z,18.90
2022-12-09T04:40:10.285Z,20.10
2022-12-09T04:42:40.439Z,19.30
2022-12-09T04:45:10.611Z,18.80
2022-12-09T04:47:39.125Z,18.73
2022-12-09T04:50:09.198Z,19.00
2022-12-09T04:52:37.735Z,18.80
2022-12-09T04:55:06.986Z,18.60
2022-12-09T04:57:35.318Z,18.55
2022-12-09T05:00:06.031Z,18.38
2022-12-09T05:02:35.667Z,18.80
2022-12-09T05:05:04.244Z,18.13
2022-12-09T05:07:32.952Z,20.33
2022-12-09T05:10:01.484Z,24.75
2022-12-09T05:12:30.232Z,20.83
2022-12-09T05:14:58.984Z,18.88
2022-12-09T05:17:29.003Z,18.95
2022-12-09T05:19:57.476Z,20.98
2022-12-09T05:22:26.039Z,18.45
2022-12-09T05:24:54.285Z,19.20
2022-12-09T05:27:23.570Z,19.55
2022-12-09T05:29:52.056Z,20.58
2022-12-09T05:32:21.568Z,21.75
2022-12-09T05:34:52.783Z,22.85
2022-12-09T05:37:21.187Z,20.75
2022-12-09T05:39:49.790Z,21.52
2022-12-09T05:42:18.334Z,21.83
2022-12-09T05:44:46.581Z,21.92
2022-12-09T05:47:15.125Z,21.98
2022-12-09T05:49:43.867Z,22.30
2022-12-09T05:52:14.515Z,23.08
2022-12-09T05:54:43.181Z,19.88
2022-12-09T05:57:11.648Z,22.08
2022-12-09T05:59:40.897Z,23.17
2022-12-09T06:02:10.401Z,22.45
2022-12-09T06:04:39.335Z,25.25
2022-12-09T06:07:07.921Z,23.92
2022-12-09T06:09:38.160Z,23.02
2022-12-09T06:12:07.267Z,23.02
2022-12-09T06:14:35.948Z,21.73
2022-12-09T06:17:04.606Z,21.88
2022-12-09T06:19:33.420Z,21.52
2022-12-09T06:22:02.061Z,24.77
2022-12-09T06:24:30.384Z,26.52
2022-12-09T06:27:00.207Z,25.30
2022-12-09T06:29:28.861Z,32.63
2022-12-09T06:31:57.581Z,34.17
2022-12-09T06:34:26.252Z,32.83
2022-12-09T06:36:54.872Z,31.38
2022-12-09T06:39:23.434Z,34.25
2022-12-09T06:41:52.146Z,33.85
2022-12-09T06:44:24.361Z,36.10
2022-12-09T06:46:53.012Z,32.42
2022-12-09T06:49:21.590Z,31.42
2022-12-09T06:51:50.066Z,29.52
2022-12-09T06:54:18.667Z,28.58
2022-12-09T06:56:47.203Z,29.83
2022-12-09T06:59:15.623Z,34.25
2022-12-09T07:01:45.787Z,32.72
2022-12-09T07:04:15.823Z,30.98
2022-12-09T07:06:45.453Z,34.15
2022-12-09T07:09:16.645Z,33.10
2022-12-09T07:11:46.365Z,32.83
2022-12-09T07:14:15.450Z,35.70
2022-12-09T07:16:45.325Z,32.83
2022-12-09T07:19:17.977Z,33.53
2022-12-09T07:21:47.036Z,35.22
2022-12-09T07:24:15.490Z,37.10
2022-12-09T07:26:44.056Z,41.03
2022-12-09T07:29:12.807Z,41.78
2022-12-09T07:31:41.388Z,40.38
2022-12-09T07:34:11.912Z,39.75
2022-12-09T07:36:40.701Z,38.15
2022-12-09T07:39:15.617Z,36.85
2022-12-09T07:41:44.164Z,35.78
2022-12-09T07:44:12.973Z,39.03
2022-12-09T07:46:42.050Z,37.75
2022-12-09T07:49:12.863Z,36.17
2022-12-09T07:51:42.046Z,38.65
2022-12-09T07:54:13.068Z,35.28
2022-12-09T07:56:42.174Z,35.72
2022-12-09T07:59:12.201Z,39.88
2022-12-09T08:01:40.822Z,38.00
2022-12-09T08:04:10.032Z,34.88
2022-12-09T08:06:40.393Z,34.85
2022-12-09T08:09:12.346Z,34.03
2022-12-09T08:11:41.667Z,35.45
2022-12-09T08:14:13.564Z,34.13
2022-12-09T08:16:44.138Z,34.83
2022-12-09T08:19:14.566Z,39.65
2022-12-09T08:21:48.403Z,40.55
2022-12-09T08:24:19.738Z,45.15
2022-12-09T08:26:50.604Z,45.42
2022-12-09T08:29:19.321Z,45.17
2022-12-09T08:31:48.163Z,41.08
2022-12-09T08:34:16.945Z,44.58
2022-12-09T08:36:47.074Z,40.53
2022-12-09T08:39:15.697Z,39.25
2022-12-09T08:41:45.527Z,39.55
2022-12-09T08:44:16.393Z,38.10
2022-12-09T08:46:47.498Z,39.20
2022-12-09T08:49:18.920Z,38.20
2022-12-09T08:51:51.196Z,40.30
2022-12-09T08:54:20.317Z,39.42
2022-12-09T08:56:50.199Z,42.97
2022-12-09T08:59:19.484Z,40.00
2022-12-09T09:01:48.465Z,42.13
2022-12-09T09:04:20.593Z,38.75
2022-12-09T09:06:52.593Z,37.67
2022-12-09T09:09:22.369Z,37.30
2022-12-09T09:11:51.204Z,31.90
2022-12-09T09:14:19.499Z,34.08
2022-12-09T09:16:48.222Z,25.63
2022-12-09T09:19:19.760Z,29.73
2022-12-09T09:21:48.810Z,28.63
2022-12-09T09:24:20.683Z,29.77
2022-12-09T09:26:50.983Z,26.92
2022-12-09T09:29:21.461Z,30.25
2022-12-09T09:31:54.454Z,30.65
2022-12-09T09:34:24.231Z,29.98
2022-12-09T09:36:52.815Z,31.70
2022-12-09T09:39:23.935Z,32.38
2022-12-09T09:41:55.282Z,29.80
2022-12-09T09:44:27.229Z,29.55
2022-12-09T09:46:57.733Z,33.90
2022-12-09T09:49:35.517Z,30.97
2022-12-09T09:52:08.771Z,29.80
2022-12-09T09:54:39.318Z,29.27
2022-12-09T09:57:16.522Z,28.77
2022-12-09T10:00:08.797Z,26.10
2022-12-09T10:02:58.815Z,27.47
2022-12-09T10:05:31.734Z,26.90
2022-12-09T10:08:17.474Z,27.57
2022-12-09T10:10:56.990Z,28.53
2022-12-09T10:13:40.093Z,26.13
2022-12-09T10:16:15.765Z,21.33
2022-12-09T10:18:58.660Z,21.73
2022-12-09T10:21:32.828Z,22.33
2022-12-09T10:24:17.334Z,23.13
2022-12-09T10:26:55.749Z,23.40
2022-12-09T10:29:32.892Z,20.83
2022-12-09T10:32:01.799Z,20.27
2022-12-09T10:34:30.326Z,24.83
2022-12-09T10:36:59.170Z,31.53
2022-12-09T10:39:27.429Z,29.47
2022-12-09T10:42:16.313Z,34.53
2022-12-09T10:44:44.496Z,33.50
2022-12-09T10:47:26.318Z,31.73
2022-12-09T10:49:57.681Z,29.97
2022-12-09T10:52:29.152Z,29.33
2022-12-09T10:54:58.113Z,30.07
2022-12-09T10:57:30.548Z,29.07
2022-12-09T11:00:06.463Z,24.23
2022-12-09T11:02:35.955Z,24.30
2022-12-09T11:05:24.302Z,21.95
2022-12-09T11:07:54.310Z,23.63
2022-12-09T11:10:25.608Z,22.57
2022-12-09T11:13:11.691Z,21.37
2022-12-09T11:15:44.393Z,22.50
2022-12-09T11:18:21.221Z,24.87
2022-12-09T11:20:56.981Z,26.47
2022-12-09T11:23:26.301Z,24.70
2022-12-09T11:25:57.715Z,24.37
2022-12-09T11:28:31.098Z,25.87
2022-12-09T11:31:28.516Z,25.90
2022-12-09T11:33:54.782Z,27.17
2022-12-09T11:36:30.684Z,25.37
2022-12-09T11:39:12.098Z,23.60
2022-12-09T11:42:17.083Z,23.00
2022-12-09T11:44:56.598Z,20.10
2022-12-09T11:47:36.494Z,21.47
2022-12-09T11:50:19.159Z,19.77
2022-12-09T11:52:48.439Z,17.77
2022-12-09T11:55:22.568Z,20.60
2022-12-09T11:57:54.298Z,22.87
2022-12-09T12:00:27.468Z,20.00
2022-12-09T12:03:04.581Z,18.50
2022-12-09T12:05:38.002Z,21.40
2022-12-09T12:08:19.279Z,22.03
2022-12-09T12:10:52.947Z,18.70
2022-12-09T12:13:27.552Z,20.13
2022-12-09T12:16:08.421Z,19.47
2022-12-09T12:18:40.667Z,20.40
2022-12-09T12:21:22.466Z,17.47
2022-12-09T12:24:22.110Z,20.37
2022-12-09T12:27:02.815Z,18.40
2022-12-09T12:29:40.643Z,18.03
2022-12-09T12:32:22.822Z,17.40
2022-12-09T12:35:03.812Z,18.93
2022-12-09T12:37:44.755Z,16.97
2022-12-09T12:40:27.356Z,18.47
2022-12-09T12:43:22.874Z,16.10
2022-12-09T12:46:15.699Z,16.80
2022-12-09T12:49:00.123Z,16.70
2022-12-09T12:51:36.423Z,17.50
2022-12-09T12:54:16.423Z,15.60
2022-12-09T12:56:52.572Z,16.97
2022-12-09T12:59:28.811Z,17.37
2022-12-09T13:02:01.983Z,16.73
2022-12-09T13:04:40.365Z,16.03
2022-12-09T13:07:16.020Z,21.30
2022-12-09T13:09:48.276Z,19.00
2022-12-09T13:12:40.636Z,16.40
2022-12-09T13:15:13.566Z,17.90
2022-12-09T13:17:43.534Z,18.77
2022-12-09T13:20:20.741Z,17.03
2022-12-09T13:22:55.006Z,19.48
2022-12-09T13:25:30.979Z,17.70
2022-12-09T13:28:03.380Z,17.70
2022-12-09T13:30:38.943Z,16.98
2022-12-09T13:33:23.317Z,19.27
2022-12-09T13:36:06.280Z,16.70
2022-12-09T13:38:39.791Z,20.88
2022-12-09T13:41:57.456Z,17.90
2022-12-09T13:44:33.562Z,16.25
2022-12-09T13:47:29.122Z,17.37
2022-12-09T13:50:00.725Z,21.25
2022-12-09T13:52:44.918Z,22.83
2022-12-09T13:55:25.581Z,19.77
2022-12-09T13:58:03.033Z,20.80
2022-12-09T14:00:31.849Z,20.25
2022-12-09T14:03:03.827Z,18.30
2022-12-09T14:05:36.831Z,18.05
2022-12-09T14:08:23.866Z,20.80
2022-12-09T14:10:53.141Z,20.40
2022-12-09T14:13:28.470Z,18.05
2022-12-09T14:16:34.239Z,15.85
2022-12-09T14:19:36.107Z,16.33
2022-12-09T14:22:36.232Z,14.80
2022-12-09T14:25:44.602Z,19.05
2022-12-09T14:28:40.656Z,18.17
2022-12-09T14:31:09.552Z,16.95
2022-12-09T14:33:40.222Z,20.02
2022-12-09T14:36:24.268Z,20.90
2022-12-09T14:39:23.229Z,20.70
2022-12-09T14:41:55.983Z,18.27
2022-12-09T14:44:32.983Z,17.55
2022-12-09T14:47:16.753Z,15.93
2022-12-09T14:49:49.084Z,13.75
2022-12-09T14:52:24.551Z,14.15
2022-12-09T14:54:53.598Z,16.23
2022-12-09T14:57:25.824Z,15.02
2022-12-09T14:59:58.113Z,16.17
2022-12-09T15:02:29.859Z,14.98
2022-12-09T15:05:00.157Z,13.85
2022-12-09T15:07:30.074Z,13.95
2022-12-09T15:10:00.724Z,14.20
2022-12-09T15:12:32.934Z,12.50
2022-12-09T15:15:07.616Z,14.15
2022-12-09T15:17:42.154Z,11.95
2022-12-09T15:20:23.690Z,12.05
2022-12-09T15:22:53.205Z,13.05
2022-12-09T15:25:23.217Z,12.75
2022-12-09T15:27:57.661Z,12.75
2022-12-09T15:30:31.467Z,10.43
2022-12-09T15:33:00.139Z,11.77
2022-12-09T15:35:32.490Z,12.10
2022-12-09T15:38:04.059Z,11.20
2022-12-09T15:40:35.432Z,11.18
2022-12-09T15:43:07.139Z,11.25
2022-12-09T15:45:40.534Z,11.95
2022-12-09T15:48:14.745Z,14.00
2022-12-09T15:50:50.523Z,12.75
2022-12-09T15:53:24.839Z,14.63
2022-12-09T15:55:57.953Z,12.40
2022-12-09T15:58:30.225Z,11.52
2022-12-09T16:01:00.011Z,12.77
2022-12-09T16:03:32.210Z,10.93
2022-12-09T16:06:04.414Z,12.82
2022-12-09T16:08:35.173Z,13.25
2022-12-09T16:11:04.050Z,12.00
2022-12-09T16:13:33.143Z,11.20
2022-12-09T16:16:23.223Z,10.70
2022-12-09T16:18:51.783Z,9.95
2022-12-09T16:21:28.051Z,9.68
2022-12-09T16:24:05.612Z,10.30
2022-12-09T16:26:36.967Z,12.93
2022-12-09T16:29:07.382Z,11.73
2022-12-09T16:31:37.014Z,14.57
2022-12-09T16:34:05.285Z,12.77
2022-12-09T16:36:33.547Z,13.85
2022-12-09T16:39:43.208Z,13.18
2022-12-09T16:42:27.982Z,14.88
2022-12-09T16:45:21.456Z,15.68
2022-12-09T16:47:54.714Z,13.43
2022-12-09T16:50:24.316Z,12.63
2022-12-09T16:52:53.469Z,14.88
2022-12-09T16:55:24.575Z,15.93
2022-12-09T16:57:53.809Z,15.15
2022-12-09T17:00:22.683Z,14.07
2022-12-09T17:02:54.952Z,11.60
2022-12-09T17:05:23.219Z,13.63
2022-12-09T17:07:51.486Z,14.15
2022-12-09T17:10:19.808Z,8.68
2022-12-09T17:12:48.155Z,8.45
2022-12-09T17:15:18.034Z,12.60
2022-12-09T17:17:48.796Z,13.40
2022-12-09T17:20:18.871Z,12.90
2022-12-09T17:22:47.066Z,11.40
2022-12-09T17:25:15.236Z,9.80
2022-12-09T17:27:43.525Z,12.63
2022-12-09T17:30:12.914Z,10.13
2022-12-09T17:32:41.172Z,12.23
2022-12-09T17:35:12.749Z,9.25
2022-12-09T17:37:42.872Z,10.10
2022-12-09T17:40:12.363Z,11.85
2022-12-09T17:42:40.708Z,10.93
2022-12-09T17:45:10.215Z,14.50
2022-12-09T17:47:38.722Z,18.25
2022-12-09T17:50:07.781Z,16.23
2022-12-09T17:52:36.363Z,9.68
2022-12-09T17:55:06.586Z,13.18
2022-12-09T17:57:34.949Z,13.65
2022-12-09T18:00:03.705Z,11.95
2022-12-09T18:02:40.295Z,10.77
2022-12-09T18:05:09.677Z,12.15
2022-12-09T18:07:37.999Z,10.45
2022-12-09T18:10:08.935Z,10.65
2022-12-09T18:12:37.366Z,10.38
2022-12-09T18:15:06.166Z,10.43
2022-12-09T18:17:34.430Z,9.93
2022-12-09T18:20:02.779Z,10.07
2022-12-09T18:22:30.988Z,11.70
2022-12-09T18:24:59.307Z,8.55
2022-12-09T18:27:29.011Z,9.63
2022-12-09T18:29:57.237Z,8.45
2022-12-09T18:32:25.475Z,8.30
2022-12-09T18:34:53.632Z,9.25
2022-12-09T18:37:21.775Z,10.18
2022-12-09T18:39:49.946Z,8.75
2022-12-09T18:42:18.196Z,8.98
2022-12-09T18:44:50.304Z,9.27
2022-12-09T18:47:18.471Z,10.73
2022-12-09T18:49:46.696Z,11.98
2022-12-09T18:52:14.951Z,12.43
2022-12-09T18:54:43.142Z,10.85
2022-12-09T18:57:11.342Z,12.70
2022-12-09T18:59:39.816Z,11.02
2022-12-09T19:02:11.932Z,12.23
2022-12-09T19:04:40.186Z,10.80
2022-12-09T19:07:08.426Z,10.73
2022-12-09T19:09:37.320Z,11.43
2022-12-09T19:12:38.271Z,11.50
2022-12-09T19:14:56.087Z,10.57
2022-12-09T19:17:25.873Z,11.65
2022-12-09T19:19:54.169Z,14.00
2022-12-09T19:22:22.353Z,11.52
2022-12-09T19:24:50.578Z,12.07
2022-12-09T19:27:18.719Z,11.80
2022-12-09T19:29:46.993Z,12.45
2022-12-09T19:32:50.844Z,11.70
2022-12-09T19:35:05.181Z,11.75
2022-12-09T19:37:33.739Z,10.48
2022-12-09T19:40:01.900Z,10.77
2022-12-09T19:42:30.104Z,12.95
2022-12-09T19:45:02.972Z,12.70
2022-12-09T19:47:32.258Z,12.85
2022-12-09T19:50:00.504Z,12.52
2022-12-09T19:52:30.133Z,13.13
2022-12-09T19:54:58.347Z,10.88
2022-12-09T19:57:26.509Z,13.18
2022-12-09T19:59:54.640Z,8.85
2022-12-09T20:02:22.865Z,10.30
2022-12-09T20:04:51.614Z,9.75
2022-12-09T20:07:20.140Z,11.73
2022-12-09T20:09:50.336Z,11.77
2022-12-09T20:12:18.515Z,10.07
2022-12-09T20:14:46.792Z,11.60
2022-12-09T20:17:16.603Z,9.90
2022-12-09T20:19:44.786Z,9.50
2022-12-09T20:22:13.105Z,8.60
2022-12-09T20:24:41.284Z,10.20
2022-12-09T20:27:11.103Z,10.45
2022-12-09T20:29:39.313Z,10.45
2022-12-09T20:32:08.778Z,10.75
2022-12-09T20:34:37.276Z,13.88
2022-12-09T20:37:05.821Z,12.85
2022-12-09T20:39:34.070Z,12.30
2022-12-09T20:42:02.433Z,12.00
2022-12-09T20:44:32.620Z,10.93
2022-12-09T20:47:00.857Z,11.10
2022-12-09T20:49:29.923Z,11.15
2022-12-09T20:51:58.395Z,10.75
2022-12-09T20:54:26.657Z,9.75
2022-12-09T20:56:54.850Z,9.98
2022-12-09T20:59:23.319Z,10.30
2022-12-09T21:01:54.290Z,11.45
2022-12-09T21:04:23.291Z,11.70
2022-12-09T21:06:51.512Z,10.65
2022-12-09T21:09:22.905Z,10.98
2022-12-09T21:11:51.661Z,9.88
2022-12-09T21:14:21.041Z,10.20
2022-12-09T21:16:50.506Z,9.82
2022-12-09T21:19:25.013Z,10.75
2022-12-09T21:21:54.574Z,9.20
2022-12-09T21:24:24.312Z,10.18
2022-12-09T21:26:55.451Z,10.07
2022-12-09T21:29:31.331Z,10.73
2022-12-09T21:32:00.820Z,11.70
2022-12-09T21:34:30.590Z,12.50
2022-12-09T21:36:58.876Z,9.63
2022-12-09T21:39:28.270Z,9.77
2022-12-09T21:41:56.527Z,10.23
2022-12-09T21:44:25.476Z,11.10
2022-12-09T21:46:53.731Z,10.30
2022-12-09T21:49:21.993Z,11.18
2022-12-09T21:51:51.518Z,11.85
2022-12-09T21:54:19.703Z,11.25
2022-12-09T21:56:47.945Z,9.95
2022-12-09T21:59:16.126Z,10.30
2022-12-09T22:01:44.757Z,9.73
2022-12-09T22:04:16.168Z,11.15
2022-12-09T22:06:47.190Z,10.18
2022-12-09T22:09:17.853Z,11.25
2022-12-09T22:11:46.154Z,11.82
2022-12-09T22:14:14.424Z,10.23
2022-12-09T22:16:44.733Z,9.93
2022-12-09T22:19:16.282Z,9.93
2022-12-09T22:21:44.491Z,10.10
2022-12-09T22:24:14.367Z,10.40
2022-12-09T22:26:45.220Z,8.93
2022-12-09T22:29:16.011Z,9.27
2022-12-09T22:31:45.330Z,9.35
2022-12-09T22:34:15.760Z,9.25
2022-12-09T22:36:44.598Z,11.55
2022-12-09T22:39:15.625Z,11.07
2022-12-09T22:41:46.145Z,11.15
2022-12-09T22:44:17.591Z,10.65
2022-12-09T22:46:47.773Z,10.93
2022-12-09T22:49:17.158Z,9.63
2022-12-09T22:51:46.418Z,9.05
2022-12-09T22:54:15.343Z,10.27
2022-12-09T22:56:45.639Z,10.18
2022-12-09T22:59:14.762Z,8.60
2022-12-09T23:01:45.227Z,11.40
2022-12-09T23:04:14.718Z,9.30
2022-12-09T23:06:43.049Z,9.68
2022-12-09T23:09:14.753Z,9.18
2022-12-09T23:11:43.211Z,8.20
2022-12-09T23:14:13.291Z,9.27
2022-12-09T23:16:41.525Z,8.75
2022-12-09T23:19:11.570Z,8.02
2022-12-09T23:21:41.277Z,9.23
2022-12-09T23:24:13.139Z,8.45
2022-12-09T23:26:42.708Z,8.02
2022-12-09T23:29:15.900Z,8.18
2022-12-09T23:31:44.580Z,8.57
2022-12-09T23:34:14.510Z,8.25
2022-12-09T23:36:44.437Z,8.55
2022-12-09T23:39:15.344Z,9.00
2022-12-09T23:41:45.067Z,9.05
2022-12-09T23:44:16.887Z,9.70
2022-12-09T23:46:45.604Z,9.02
2022-12-09T23:49:14.099Z,7.65
2022-12-09T23:51:44.572Z,8.50
2022-12-09T23:54:14.968Z,8.50
2022-12-09T23:56:48.221Z,7.20
2022-12-09T23:59:20.002Z,8.35
